createdAt,value
2018-10-04T00:00:38.145Z,781.00
2018-10-04T00:01:38.450Z,780.00
2018-10-04T00:02:38.760Z,782.00
2018-10-04T00:03:39.176Z,781.00
2018-10-04T00:04:39.625Z,780.00
2018-10-04T00:05:39.958Z,782.00
2018-10-04T00:06:40.535Z,782.00
2018-10-04T00:07:41.157Z,782.00
2018-10-04T00:08:41.462Z,782.00
2018-10-04T00:09:41.681Z,780.00
2018-10-04T00:10:42.016Z,780.00
2018-10-04T00:11:42.161Z,780.00
2018-10-04T00:12:42.508Z,780.00
2018-10-04T00:13:42.810Z,780.00
2018-10-04T00:14:43.131Z,780.00
2018-10-04T00:15:43.412Z,780.00
2018-10-04T00:16:43.824Z,780.00
2018-10-04T00:17:44.066Z,781.00
2018-10-04T00:18:43.496Z,780.00
2018-10-04T00:19:44.755Z,780.00
2018-10-04T00:20:44.975Z,780.00
2018-10-04T00:21:45.596Z,780.00
2018-10-04T00:22:46.044Z,780.00
2018-10-04T00:23:46.456Z,780.00
2018-10-04T00:24:46.775Z,780.00
2018-10-04T00:25:47.038Z,780.00
2018-10-04T00:26:47.411Z,780.00
2018-10-04T00:27:47.760Z,780.00
2018-10-04T00:28:48.121Z,781.00
2018-10-04T00:29:48.436Z,782.00
2018-10-04T00:30:48.775Z,781.00
2018-10-04T00:31:49.176Z,781.00
2018-10-04T00:32:49.575Z,782.00
2018-10-04T00:33:49.901Z,781.00
2018-10-04T00:34:50.219Z,780.00
2018-10-04T00:35:50.529Z,781.00
2018-10-04T00:36:51.017Z,781.00
2018-10-04T00:36:59.382Z,782.00
2018-10-04T00:38:00.785Z,781.00
2018-10-04T00:39:01.156Z,782.00
2018-10-04T00:40:01.501Z,780.00
2018-10-04T00:41:01.881Z,781.00
2018-10-04T00:42:01.335Z,780.00
2018-10-04T00:43:02.792Z,782.00
2018-10-04T00:44:03.108Z,781.00
2018-10-04T00:45:03.433Z,780.00
2018-10-04T00:46:04.016Z,780.00
2018-10-04T00:47:03.155Z,782.00
2018-10-04T00:48:04.496Z,781.00
2018-10-04T00:49:04.800Z,781.00
2018-10-04T00:50:05.089Z,780.00
2018-10-04T00:51:05.529Z,781.00
2018-10-04T00:52:06.040Z,781.00
2018-10-04T00:53:06.317Z,782.00
2018-10-04T00:54:06.540Z,782.00
2018-10-04T00:55:06.845Z,782.00
2018-10-04T00:56:07.201Z,782.00
2018-10-04T00:57:07.527Z,782.00
2018-10-04T00:58:08.275Z,782.00
2018-10-04T00:59:08.569Z,783.00
2018-10-04T01:00:08.934Z,782.00
2018-10-04T01:01:09.436Z,782.00
2018-10-04T01:02:09.778Z,783.00
2018-10-04T01:03:10.702Z,782.00
2018-10-04T01:04:10.259Z,782.00
2018-10-04T01:05:11.722Z,782.00
2018-10-04T01:06:10.991Z,781.00
2018-10-04T01:07:12.449Z,782.00
2018-10-04T01:08:12.826Z,782.00
2018-10-04T01:09:13.140Z,783.00
2018-10-04T01:10:13.587Z,785.00
2018-10-04T01:11:14.021Z,785.00
2018-10-04T01:12:14.389Z,785.00
2018-10-04T01:13:14.775Z,785.00
2018-10-04T01:14:15.066Z,783.00
2018-10-04T01:15:15.467Z,784.00
2018-10-04T01:16:15.815Z,784.00
2018-10-04T01:17:16.101Z,783.00
2018-10-04T01:18:16.377Z,784.00
2018-10-04T01:19:16.636Z,784.00
2018-10-04T01:20:17.237Z,783.00
2018-10-04T01:21:17.609Z,783.00
2018-10-04T01:22:17.955Z,783.00
2018-10-04T01:23:18.187Z,783.00
2018-10-04T01:24:18.509Z,783.00
2018-10-04T01:25:18.869Z,784.00
2018-10-04T01:25:26.943Z,783.00
2018-10-04T01:26:28.193Z,783.00
2018-10-04T01:27:28.438Z,783.00
2018-10-04T01:28:28.723Z,783.00
2018-10-04T01:29:29.070Z,783.00
2018-10-04T01:30:29.447Z,782.00
2018-10-04T01:31:29.805Z,783.00
2018-10-04T01:32:29.026Z,782.00
2018-10-04T01:33:30.349Z,783.00
2018-10-04T01:34:30.614Z,784.00
2018-10-04T01:35:30.880Z,783.00
2018-10-04T01:36:31.522Z,783.00
2018-10-04T01:37:31.831Z,783.00
2018-10-04T01:38:32.134Z,783.00
2018-10-04T01:39:32.689Z,783.00
2018-10-04T01:40:32.934Z,782.00
2018-10-04T01:41:33.451Z,784.00
2018-10-04T01:42:33.752Z,785.00
2018-10-04T01:43:34.053Z,785.00
2018-10-04T01:44:34.479Z,784.00
2018-10-04T01:45:34.909Z,786.00
2018-10-04T01:46:35.255Z,786.00
2018-10-04T01:47:35.757Z,785.00
2018-10-04T01:48:36.119Z,784.00
2018-10-04T01:49:36.411Z,784.00
2018-10-04T01:50:36.742Z,785.00
2018-10-04T01:51:36.839Z,786.00
2018-10-04T01:52:37.900Z,785.00
2018-10-04T01:53:37.866Z,785.00
2018-10-04T01:54:38.412Z,784.00
2018-10-04T01:55:38.923Z,784.00
2018-10-04T01:56:39.308Z,784.00
2018-10-04T01:57:39.608Z,785.00
2018-10-04T01:58:40.365Z,785.00
2018-10-04T01:59:40.593Z,784.00
2018-10-04T02:00:41.173Z,784.00
2018-10-04T02:01:41.780Z,784.00
2018-10-04T02:02:42.218Z,784.00
2018-10-04T02:03:42.698Z,784.00
2018-10-04T02:04:43.083Z,784.00
2018-10-04T02:05:43.619Z,784.00
2018-10-04T02:06:43.731Z,785.00
2018-10-04T02:07:44.551Z,784.00
2018-10-04T02:08:47.438Z,784.00
2018-10-04T02:09:45.254Z,784.00
2018-10-04T02:10:45.552Z,784.00
2018-10-04T02:11:46.056Z,785.00
2018-10-04T02:12:46.542Z,784.00
2018-10-04T02:13:47.249Z,784.00
2018-10-04T02:14:48.644Z,784.00
2018-10-04T02:15:48.874Z,784.00
2018-10-04T02:16:48.714Z,784.00
2018-10-04T02:17:48.799Z,785.00
2018-10-04T02:18:48.861Z,784.00
2018-10-04T02:19:50.571Z,785.00
2018-10-04T02:20:50.285Z,787.00
2018-10-04T02:21:51.010Z,786.00
2018-10-04T02:22:51.476Z,785.00
2018-10-04T02:23:53.430Z,785.00
2018-10-04T02:24:52.596Z,784.00
2018-10-04T02:25:53.516Z,784.00
2018-10-04T02:26:53.943Z,785.00
2018-10-04T02:27:54.126Z,786.00
2018-10-04T02:28:54.967Z,787.00
2018-10-04T02:29:54.981Z,786.00
2018-10-04T02:30:56.871Z,786.00
2018-10-04T02:31:56.270Z,786.00
2018-10-04T02:32:57.603Z,787.00
2018-10-04T02:33:56.958Z,788.00
2018-10-04T02:34:57.030Z,786.00
2018-10-04T02:35:57.441Z,787.00
2018-10-04T02:36:57.573Z,787.00
2018-10-04T02:37:58.019Z,786.00
2018-10-04T02:38:58.897Z,786.00
2018-10-04T02:40:00.252Z,785.00
2018-10-04T02:41:00.278Z,786.00
2018-10-04T02:42:00.482Z,786.00
2018-10-04T02:42:10.068Z,785.00
2018-10-04T02:43:09.138Z,785.00
2018-10-04T02:44:09.244Z,785.00
2018-10-04T02:45:09.537Z,785.00
2018-10-04T02:46:09.912Z,784.00
2018-10-04T02:47:10.475Z,784.00
2018-10-04T02:48:10.948Z,784.00
2018-10-04T02:49:11.358Z,784.00
2018-10-04T02:50:13.328Z,785.00
2018-10-04T02:51:12.106Z,784.00
2018-10-04T02:52:13.398Z,784.00
2018-10-04T02:53:12.918Z,784.00
2018-10-04T02:54:13.422Z,784.00
2018-10-04T02:55:14.171Z,784.00
2018-10-04T02:56:14.489Z,784.00
2018-10-04T02:57:15.291Z,784.00
2018-10-04T02:58:16.236Z,785.00
2018-10-04T02:59:16.278Z,785.00
2018-10-04T03:00:17.173Z,784.00
2018-10-04T03:01:17.032Z,784.00
2018-10-04T03:02:17.724Z,784.00
2018-10-04T03:03:17.976Z,784.00
2018-10-04T03:04:18.332Z,784.00
2018-10-04T03:05:18.976Z,786.00
2018-10-04T03:06:19.203Z,786.00
2018-10-04T03:07:21.113Z,786.00
2018-10-04T03:08:20.998Z,785.00
2018-10-04T03:09:21.312Z,785.00
2018-10-04T03:10:21.454Z,785.00
2018-10-04T03:11:21.615Z,785.00
2018-10-04T03:12:21.929Z,785.00
2018-10-04T03:13:22.621Z,784.00
2018-10-04T03:14:23.203Z,784.00
2018-10-04T03:15:23.047Z,785.00
2018-10-04T03:16:24.055Z,784.00
2018-10-04T03:17:25.195Z,784.00
2018-10-04T03:18:24.575Z,784.00
2018-10-04T03:19:26.128Z,784.00
2018-10-04T03:20:25.029Z,784.00
2018-10-04T03:21:25.349Z,784.00
2018-10-04T03:22:26.171Z,784.00
2018-10-04T03:23:26.696Z,784.00
2018-10-04T03:24:28.134Z,784.00
2018-10-04T03:25:28.305Z,784.00
2018-10-04T03:26:27.201Z,784.00
2018-10-04T03:27:28.444Z,784.00
2018-10-04T03:28:28.262Z,784.00
2018-10-04T03:29:28.770Z,784.00
2018-10-04T03:30:29.085Z,784.00
2018-10-04T03:31:29.652Z,785.00
2018-10-04T03:32:31.020Z,785.00
2018-10-04T03:33:31.845Z,784.00
2018-10-04T03:34:31.076Z,784.00
2018-10-04T03:35:33.020Z,785.00
2018-10-04T03:36:33.510Z,785.00
2018-10-04T03:37:33.001Z,784.00
2018-10-04T03:38:33.832Z,784.00
2018-10-04T03:39:34.508Z,785.00
2018-10-04T03:40:36.007Z,787.00
2018-10-04T03:41:35.355Z,788.00
2018-10-04T03:42:36.870Z,787.00
2018-10-04T03:43:36.254Z,786.00
2018-10-04T03:44:36.667Z,786.00
2018-10-04T03:45:38.267Z,785.00
2018-10-04T03:46:38.542Z,785.00
2018-10-04T03:47:38.843Z,786.00
2018-10-04T03:48:39.087Z,785.00
2018-10-04T03:49:39.306Z,785.00
2018-10-04T03:50:39.843Z,785.00
2018-10-04T03:51:40.057Z,784.00
2018-10-04T03:52:40.295Z,784.00
2018-10-04T03:53:40.588Z,784.00
2018-10-04T03:54:40.909Z,784.00
2018-10-04T03:55:41.121Z,785.00
2018-10-04T03:56:41.643Z,785.00
2018-10-04T03:57:42.872Z,785.00
2018-10-04T03:58:41.833Z,784.00
2018-10-04T03:58:50.202Z,784.00
2018-10-04T03:59:51.411Z,784.00
2018-10-04T04:00:51.669Z,785.00
2018-10-04T04:01:51.933Z,785.00
2018-10-04T04:02:52.272Z,785.00
2018-10-04T04:03:52.553Z,786.00
2018-10-04T04:04:52.807Z,785.00
2018-10-04T04:05:52.231Z,785.00
2018-10-04T04:06:53.417Z,785.00
2018-10-04T04:07:53.636Z,785.00
2018-10-04T04:08:53.845Z,784.00
2018-10-04T04:09:54.126Z,785.00
2018-10-04T04:10:54.370Z,784.00
2018-10-04T04:11:54.835Z,784.00
2018-10-04T04:12:53.963Z,784.00
2018-10-04T04:13:55.258Z,784.00
2018-10-04T04:14:55.534Z,785.00
2018-10-04T04:15:55.769Z,786.00
2018-10-04T04:16:56.055Z,786.00
2018-10-04T04:17:56.292Z,786.00
2018-10-04T04:18:56.569Z,786.00
2018-10-04T04:19:56.855Z,785.00
2018-10-04T04:20:57.093Z,786.00
2018-10-04T04:21:57.446Z,786.00
2018-10-04T04:22:57.648Z,786.00
2018-10-04T04:23:57.845Z,786.00
2018-10-04T04:24:58.449Z,785.00
2018-10-04T04:25:57.718Z,786.00
2018-10-04T04:26:58.731Z,787.00
2018-10-04T04:27:58.976Z,786.00
2018-10-04T04:28:59.221Z,786.00
2018-10-04T04:29:59.527Z,785.00
2018-10-04T04:30:59.769Z,786.00
2018-10-04T04:32:00.012Z,785.00
2018-10-04T04:32:59.279Z,785.00
2018-10-04T04:34:00.561Z,786.00
2018-10-04T04:35:00.813Z,786.00
2018-10-04T04:36:01.603Z,786.00
2018-10-04T04:37:01.884Z,785.00
2018-10-04T04:38:02.179Z,786.00
2018-10-04T04:39:02.382Z,787.00
2018-10-04T04:40:02.631Z,787.00
2018-10-04T04:41:02.953Z,787.00
2018-10-04T04:42:02.195Z,787.00
2018-10-04T04:43:03.403Z,786.00
2018-10-04T04:44:03.700Z,787.00
2018-10-04T04:45:03.959Z,787.00
2018-10-04T04:46:04.649Z,788.00
2018-10-04T04:46:12.708Z,788.00
2018-10-04T04:47:14.170Z,787.00
2018-10-04T04:48:13.688Z,788.00
2018-10-04T04:49:14.937Z,788.00
2018-10-04T04:50:15.166Z,787.00
2018-10-04T04:51:15.439Z,787.00
2018-10-04T04:52:15.723Z,786.00
2018-10-04T04:53:15.975Z,792.00
2018-10-04T04:54:15.150Z,788.00
2018-10-04T04:55:16.352Z,787.00
2018-10-04T04:56:16.587Z,787.00
2018-10-04T04:57:15.921Z,787.00
2018-10-04T04:58:17.114Z,787.00
2018-10-04T04:59:17.490Z,786.00
2018-10-04T05:00:17.705Z,786.00
2018-10-04T05:01:18.137Z,786.00
2018-10-04T05:02:18.440Z,786.00
2018-10-04T05:03:18.848Z,788.00
2018-10-04T05:04:19.207Z,787.00
2018-10-04T05:05:19.579Z,786.00
2018-10-04T05:06:19.936Z,786.00
2018-10-04T05:07:19.131Z,786.00
2018-10-04T05:08:20.745Z,787.00
2018-10-04T05:09:21.062Z,787.00
2018-10-04T05:10:21.267Z,786.00
2018-10-04T05:11:21.511Z,787.00
2018-10-04T05:12:21.677Z,787.00
2018-10-04T05:13:21.997Z,786.00
2018-10-04T05:14:22.373Z,786.00
2018-10-04T05:15:22.711Z,786.00
2018-10-04T05:16:23.049Z,787.00
2018-10-04T05:17:23.124Z,786.00
2018-10-04T05:18:23.378Z,786.00
2018-10-04T05:19:23.620Z,786.00
2018-10-04T05:20:23.901Z,785.00
2018-10-04T05:21:24.220Z,786.00
2018-10-04T05:22:24.581Z,786.00
2018-10-04T05:23:23.887Z,787.00
2018-10-04T05:24:25.236Z,787.00
2018-10-04T05:25:25.570Z,787.00
2018-10-04T05:26:26.062Z,787.00
2018-10-04T05:27:26.289Z,786.00
2018-10-04T05:28:26.634Z,787.00
2018-10-04T05:29:26.894Z,786.00
2018-10-04T05:30:27.199Z,787.00
2018-10-04T05:30:35.506Z,787.00
2018-10-04T05:31:37.197Z,786.00
2018-10-04T05:32:37.717Z,788.00
2018-10-04T05:33:38.038Z,788.00
2018-10-04T05:34:38.341Z,793.00
2018-10-04T05:35:38.589Z,793.00
2018-10-04T05:36:38.905Z,795.00
2018-10-04T05:37:39.137Z,796.00
2018-10-04T05:38:39.367Z,794.00
2018-10-04T05:39:39.779Z,792.00
2018-10-04T05:40:40.135Z,793.00
2018-10-04T05:41:40.549Z,792.00
2018-10-04T05:42:40.934Z,788.00
2018-10-04T05:43:41.200Z,787.00
2018-10-04T05:44:41.386Z,787.00
2018-10-04T05:45:41.569Z,787.00
2018-10-04T05:46:41.953Z,787.00
2018-10-04T05:47:42.149Z,787.00
2018-10-04T05:48:42.539Z,786.00
2018-10-04T05:49:42.796Z,786.00
2018-10-04T05:50:43.031Z,788.00
2018-10-04T05:51:43.634Z,787.00
2018-10-04T05:52:44.111Z,787.00
2018-10-04T05:53:44.330Z,787.00
2018-10-04T05:54:44.635Z,787.00
2018-10-04T05:55:45.029Z,787.00
2018-10-04T05:56:44.248Z,786.00
2018-10-04T05:57:45.608Z,786.00
2018-10-04T05:58:45.880Z,787.00
2018-10-04T05:59:46.152Z,787.00
2018-10-04T06:00:46.416Z,787.00
2018-10-04T06:01:46.787Z,787.00
2018-10-04T06:02:47.194Z,787.00
2018-10-04T06:03:47.395Z,786.00
2018-10-04T06:04:47.657Z,786.00
2018-10-04T06:05:47.049Z,786.00
2018-10-04T06:06:48.319Z,786.00
2018-10-04T06:07:48.672Z,786.00
2018-10-04T06:08:49.628Z,786.00
2018-10-04T06:09:49.895Z,786.00
2018-10-04T06:10:50.109Z,785.00
2018-10-04T06:11:50.393Z,786.00
2018-10-04T06:12:50.610Z,785.00
2018-10-04T06:13:50.805Z,785.00
2018-10-04T06:13:59.167Z,785.00
2018-10-04T06:15:00.479Z,785.00
2018-10-04T06:15:59.658Z,785.00
2018-10-04T06:17:00.996Z,785.00
2018-10-04T06:18:01.385Z,785.00
2018-10-04T06:19:01.711Z,785.00
2018-10-04T06:20:02.011Z,785.00
2018-10-04T06:21:02.264Z,785.00
2018-10-04T06:22:02.742Z,785.00
2018-10-04T06:23:01.946Z,785.00
2018-10-04T06:24:03.210Z,784.00
2018-10-04T06:25:03.672Z,784.00
2018-10-04T06:26:04.012Z,784.00
2018-10-04T06:27:04.321Z,784.00
2018-10-04T06:28:04.550Z,784.00
2018-10-04T06:29:04.811Z,784.00
2018-10-04T06:30:05.010Z,784.00
2018-10-04T06:31:05.477Z,785.00
2018-10-04T06:32:05.927Z,784.00
2018-10-04T06:33:06.245Z,784.00
2018-10-04T06:34:06.660Z,784.00
2018-10-04T06:35:06.995Z,784.00
2018-10-04T06:36:07.290Z,784.00
2018-10-04T06:37:07.648Z,784.00
2018-10-04T06:38:07.824Z,784.00
2018-10-04T06:39:08.094Z,783.00
2018-10-04T06:40:08.320Z,783.00
2018-10-04T06:41:07.699Z,783.00
2018-10-04T06:42:08.959Z,782.00
2018-10-04T06:43:09.222Z,782.00
2018-10-04T06:44:09.457Z,782.00
2018-10-04T06:45:08.591Z,782.00
2018-10-04T06:46:10.050Z,782.00
2018-10-04T06:47:10.406Z,782.00
2018-10-04T06:48:10.617Z,782.00
2018-10-04T06:49:10.949Z,781.00
2018-10-04T06:50:11.181Z,781.00
2018-10-04T06:51:10.544Z,780.00
2018-10-04T06:52:11.942Z,780.00
2018-10-04T06:53:12.152Z,780.00
2018-10-04T06:54:12.580Z,780.00
2018-10-04T06:55:12.943Z,780.00
2018-10-04T06:56:13.347Z,778.00
2018-10-04T06:57:13.663Z,780.00
2018-10-04T06:58:14.115Z,778.00
2018-10-04T06:59:13.165Z,777.00
2018-10-04T07:00:14.640Z,778.00
2018-10-04T07:01:14.954Z,778.00
2018-10-04T07:02:15.396Z,778.00
2018-10-04T07:03:15.641Z,778.00
2018-10-04T07:03:24.002Z,778.00
2018-10-04T07:04:25.158Z,778.00
2018-10-04T07:05:25.358Z,777.00
2018-10-04T07:06:25.747Z,778.00
2018-10-04T07:07:25.982Z,777.00
2018-10-04T07:08:26.152Z,777.00
2018-10-04T07:09:26.523Z,776.00
2018-10-04T07:10:26.902Z,776.00
2018-10-04T07:11:27.146Z,776.00
2018-10-04T07:12:27.673Z,776.00
2018-10-04T07:13:27.871Z,776.00
2018-10-04T07:14:28.164Z,775.00
2018-10-04T07:15:28.616Z,775.00
2018-10-04T07:16:28.993Z,775.00
2018-10-04T07:17:29.502Z,775.00
2018-10-04T07:18:29.769Z,775.00
2018-10-04T07:19:30.104Z,775.00
2018-10-04T07:20:30.407Z,776.00
2018-10-04T07:21:29.572Z,775.00
2018-10-04T07:22:31.013Z,776.00
2018-10-04T07:23:31.097Z,775.00
2018-10-04T07:24:31.453Z,775.00
2018-10-04T07:25:31.646Z,775.00
2018-10-04T07:26:32.034Z,774.00
2018-10-04T07:27:32.422Z,775.00
2018-10-04T07:28:32.683Z,776.00
2018-10-04T07:29:33.166Z,776.00
2018-10-04T07:30:33.530Z,775.00
2018-10-04T07:31:33.740Z,775.00
2018-10-04T07:32:33.946Z,774.00
2018-10-04T07:33:34.460Z,774.00
2018-10-04T07:34:34.767Z,774.00
2018-10-04T07:35:34.978Z,774.00
2018-10-04T07:36:35.691Z,774.00
2018-10-04T07:37:36.127Z,773.00
2018-10-04T07:38:36.321Z,773.00
2018-10-04T07:39:36.576Z,774.00
2018-10-04T07:40:36.947Z,774.00
2018-10-04T07:41:37.179Z,774.00
2018-10-04T07:42:37.939Z,774.00
2018-10-04T07:43:37.160Z,773.00
2018-10-04T07:44:38.391Z,774.00
2018-10-04T07:45:38.928Z,774.00
2018-10-04T07:46:39.173Z,773.00
2018-10-04T07:47:39.609Z,773.00
2018-10-04T07:48:39.956Z,773.00
2018-10-04T07:48:50.036Z,772.00
2018-10-04T07:49:51.236Z,772.00
2018-10-04T07:50:51.346Z,772.00
2018-10-04T07:51:51.694Z,772.00
2018-10-04T07:52:51.949Z,770.00
2018-10-04T07:53:52.277Z,770.00
2018-10-04T07:54:52.703Z,770.00
2018-10-04T07:55:53.105Z,770.00
2018-10-04T07:56:53.618Z,769.00
2018-10-04T07:57:53.934Z,769.00
2018-10-04T07:58:54.208Z,769.00
2018-10-04T07:59:54.564Z,768.00
2018-10-04T08:00:54.835Z,769.00
2018-10-04T08:01:55.086Z,769.00
2018-10-04T08:02:55.315Z,769.00
2018-10-04T08:03:55.611Z,768.00
2018-10-04T08:04:55.799Z,768.00
2018-10-04T08:05:56.441Z,766.00
2018-10-04T08:06:55.815Z,768.00
2018-10-04T08:07:57.357Z,768.00
2018-10-04T08:08:57.948Z,766.00
2018-10-04T08:09:58.310Z,766.00
2018-10-04T08:10:58.628Z,765.00
2018-10-04T08:11:58.875Z,766.00
2018-10-04T08:12:59.765Z,766.00
2018-10-04T08:14:00.032Z,768.00
2018-10-04T08:15:00.445Z,766.00
2018-10-04T08:16:00.872Z,766.00
2018-10-04T08:17:01.075Z,765.00
2018-10-04T08:18:01.493Z,765.00
2018-10-04T08:19:01.674Z,765.00
2018-10-04T08:20:01.978Z,765.00
2018-10-04T08:21:02.463Z,765.00
2018-10-04T08:22:01.635Z,764.00
2018-10-04T08:23:02.999Z,765.00
2018-10-04T08:24:03.217Z,766.00
2018-10-04T08:25:03.486Z,765.00
2018-10-04T08:26:03.720Z,765.00
2018-10-04T08:27:03.973Z,763.00
2018-10-04T08:28:04.587Z,763.00
2018-10-04T08:29:04.885Z,763.00
2018-10-04T08:30:05.179Z,763.00
2018-10-04T08:31:05.588Z,763.00
2018-10-04T08:31:13.882Z,763.00
2018-10-04T08:32:15.148Z,763.00
2018-10-04T08:33:15.437Z,763.00
2018-10-04T08:34:15.812Z,762.00
2018-10-04T08:35:16.370Z,762.00
2018-10-04T08:36:15.675Z,763.00
2018-10-04T08:37:16.883Z,763.00
2018-10-04T08:38:17.095Z,765.00
2018-10-04T08:39:17.577Z,766.00
2018-10-04T08:40:17.879Z,765.00
2018-10-04T08:41:18.208Z,765.00
2018-10-04T08:42:18.491Z,766.00
2018-10-04T08:43:17.694Z,770.00
2018-10-04T08:44:18.944Z,768.00
2018-10-04T08:45:19.224Z,766.00
2018-10-04T08:46:19.491Z,765.00
2018-10-04T08:47:19.718Z,768.00
2018-10-04T08:48:20.269Z,769.00
2018-10-04T08:49:19.394Z,768.00
2018-10-04T08:50:20.749Z,766.00
2018-10-04T08:51:21.259Z,766.00
2018-10-04T08:52:21.572Z,765.00
2018-10-04T08:53:21.940Z,765.00
2018-10-04T08:54:22.382Z,764.00
2018-10-04T08:55:21.672Z,763.00
2018-10-04T08:56:22.979Z,765.00
2018-10-04T08:57:23.567Z,763.00
2018-10-04T08:58:23.922Z,765.00
2018-10-04T08:59:24.177Z,763.00
2018-10-04T09:00:23.516Z,763.00
2018-10-04T09:01:24.939Z,762.00
2018-10-04T09:02:25.287Z,762.00
2018-10-04T09:03:25.554Z,763.00
2018-10-04T09:04:26.080Z,762.00
2018-10-04T09:05:26.394Z,763.00
2018-10-04T09:06:26.742Z,765.00
2018-10-04T09:07:27.096Z,765.00
2018-10-04T09:08:26.425Z,765.00
2018-10-04T09:09:27.705Z,763.00
2018-10-04T09:10:28.043Z,763.00
2018-10-04T09:11:28.447Z,762.00
2018-10-04T09:12:28.692Z,762.00
2018-10-04T09:13:28.889Z,762.00
2018-10-04T09:14:29.375Z,760.00
2018-10-04T09:15:29.641Z,761.00
2018-10-04T09:16:29.875Z,761.00
2018-10-04T09:17:30.094Z,762.00
2018-10-04T09:18:30.378Z,761.00
2018-10-04T09:19:30.591Z,760.00
2018-10-04T09:19:38.910Z,760.00
2018-10-04T09:20:40.148Z,760.00
2018-10-04T09:21:40.517Z,760.00
2018-10-04T09:22:40.897Z,760.00
2018-10-04T09:23:41.347Z,759.00
2018-10-04T09:24:41.628Z,760.00
2018-10-04T09:25:42.069Z,759.00
2018-10-04T09:26:42.372Z,759.00
2018-10-04T09:27:42.560Z,759.00
2018-10-04T09:28:42.773Z,759.00
2018-10-04T09:29:43.250Z,759.00
2018-10-04T09:30:43.943Z,759.00
2018-10-04T09:31:44.365Z,758.00
2018-10-04T09:32:44.474Z,758.00
2018-10-04T09:33:44.890Z,758.00
2018-10-04T09:34:45.212Z,758.00
2018-10-04T09:35:45.485Z,758.00
2018-10-04T09:36:45.703Z,758.00
2018-10-04T09:37:46.062Z,758.00
2018-10-04T09:38:46.278Z,758.00
2018-10-04T09:39:46.651Z,758.00
2018-10-04T09:40:46.904Z,758.00
2018-10-04T09:41:47.082Z,758.00
2018-10-04T09:42:47.516Z,758.00
2018-10-04T09:43:47.853Z,757.00
2018-10-04T09:44:48.070Z,757.00
2018-10-04T09:45:48.497Z,756.00
2018-10-04T09:46:48.828Z,757.00
2018-10-04T09:47:49.060Z,756.00
2018-10-04T09:48:49.404Z,756.00
2018-10-04T09:49:49.671Z,756.00
2018-10-04T09:50:50.043Z,756.00
2018-10-04T09:51:50.490Z,754.00
2018-10-04T09:52:50.669Z,754.00
2018-10-04T09:53:50.870Z,754.00
2018-10-04T09:54:50.217Z,754.00
2018-10-04T09:55:52.181Z,754.00
2018-10-04T09:56:52.452Z,756.00
2018-10-04T09:57:52.673Z,758.00
2018-10-04T09:58:52.973Z,758.00
2018-10-04T09:59:53.316Z,760.00
2018-10-04T10:00:52.477Z,764.00
2018-10-04T10:01:53.718Z,763.00
2018-10-04T10:02:53.926Z,765.00
2018-10-04T10:03:54.180Z,757.00
2018-10-04T10:04:54.650Z,763.00
2018-10-04T10:05:03.094Z,763.00
2018-10-04T10:06:04.454Z,763.00
2018-10-04T10:07:04.739Z,763.00
2018-10-04T10:08:04.955Z,762.00
2018-10-04T10:09:05.264Z,762.00
2018-10-04T10:10:05.549Z,762.00
2018-10-04T10:11:05.787Z,762.00
2018-10-04T10:12:06.242Z,763.00
2018-10-04T10:13:06.796Z,763.00
2018-10-04T10:14:06.988Z,764.00
2018-10-04T10:15:07.302Z,764.00
2018-10-04T10:16:07.696Z,766.00
2018-10-04T10:17:08.065Z,763.00
2018-10-04T10:18:08.482Z,764.00
2018-10-04T10:19:08.681Z,766.00
2018-10-04T10:20:08.958Z,765.00
2018-10-04T10:21:09.450Z,765.00
2018-10-04T10:22:08.849Z,763.00
2018-10-04T10:23:10.300Z,765.00
2018-10-04T10:24:10.569Z,766.00
2018-10-04T10:25:10.954Z,766.00
2018-10-04T10:26:11.372Z,766.00
2018-10-04T10:27:11.838Z,765.00
2018-10-04T10:28:12.204Z,765.00
2018-10-04T10:29:12.409Z,765.00
2018-10-04T10:30:13.371Z,766.00
2018-10-04T10:31:13.852Z,766.00
2018-10-04T10:32:14.059Z,766.00
2018-10-04T10:33:14.324Z,766.00
2018-10-04T10:34:14.754Z,768.00
2018-10-04T10:35:14.988Z,769.00
2018-10-04T10:36:15.602Z,768.00
2018-10-04T10:37:16.217Z,766.00
2018-10-04T10:38:16.402Z,765.00
2018-10-04T10:39:16.643Z,764.00
2018-10-04T10:40:17.317Z,763.00
2018-10-04T10:41:16.478Z,765.00
2018-10-04T10:42:17.691Z,764.00
2018-10-04T10:43:17.992Z,763.00
2018-10-04T10:44:18.259Z,763.00
2018-10-04T10:45:18.778Z,762.00
2018-10-04T10:46:19.093Z,762.00
2018-10-04T10:47:19.259Z,763.00
2018-10-04T10:48:20.023Z,763.00
2018-10-04T10:48:28.496Z,763.00
2018-10-04T10:49:29.835Z,762.00
2018-10-04T10:50:30.224Z,762.00
2018-10-04T10:51:30.524Z,762.00
2018-10-04T10:52:31.139Z,762.00
2018-10-04T10:53:31.319Z,763.00
2018-10-04T10:54:31.532Z,763.00
2018-10-04T10:55:31.833Z,763.00
2018-10-04T10:56:32.071Z,763.00
2018-10-04T10:57:32.405Z,763.00
2018-10-04T10:58:32.808Z,762.00
2018-10-04T10:59:32.984Z,762.00
2018-10-04T11:00:33.258Z,761.00
2018-10-04T11:01:33.593Z,762.00
2018-10-04T11:02:33.995Z,761.00
2018-10-04T11:03:34.189Z,760.00
2018-10-04T11:04:34.585Z,762.00
2018-10-04T11:05:34.905Z,762.00
2018-10-04T11:06:35.290Z,765.00
2018-10-04T11:07:35.560Z,765.00
2018-10-04T11:08:36.176Z,764.00
2018-10-04T11:09:36.502Z,763.00
2018-10-04T11:10:38.465Z,763.00
2018-10-04T11:11:36.128Z,762.00
2018-10-04T11:12:37.279Z,762.00
2018-10-04T11:13:37.526Z,762.00
2018-10-04T11:14:37.790Z,760.00
2018-10-04T11:15:38.052Z,762.00
2018-10-04T11:16:38.433Z,763.00
2018-10-04T11:17:38.790Z,766.00
2018-10-04T11:18:39.237Z,765.00
2018-10-04T11:19:39.581Z,764.00
2018-10-04T11:20:39.878Z,763.00
2018-10-04T11:21:40.088Z,765.00
2018-10-04T11:22:40.389Z,768.00
2018-10-04T11:23:40.920Z,768.00
2018-10-04T11:24:41.380Z,768.00
2018-10-04T11:25:41.792Z,766.00
2018-10-04T11:26:42.083Z,765.00
2018-10-04T11:27:42.491Z,763.00
2018-10-04T11:28:42.809Z,763.00
2018-10-04T11:29:43.297Z,763.00
2018-10-04T11:30:43.566Z,763.00
2018-10-04T11:30:51.943Z,762.00
2018-10-04T11:31:53.210Z,761.00
2018-10-04T11:32:53.506Z,760.00
2018-10-04T11:33:53.704Z,762.00
2018-10-04T11:34:54.009Z,762.00
2018-10-04T11:35:54.257Z,762.00
2018-10-04T11:36:54.555Z,765.00
2018-10-04T11:37:54.959Z,766.00
2018-10-04T11:38:55.281Z,768.00
2018-10-04T11:39:55.707Z,769.00
2018-10-04T11:40:55.981Z,772.00
2018-10-04T11:41:56.380Z,773.00
2018-10-04T11:42:56.546Z,773.00
2018-10-04T11:43:56.810Z,775.00
2018-10-04T11:44:57.119Z,776.00
2018-10-04T11:45:57.404Z,778.00
2018-10-04T11:46:57.616Z,776.00
2018-10-04T11:47:58.012Z,774.00
2018-10-04T11:48:58.299Z,773.00
2018-10-04T11:49:58.670Z,772.00
2018-10-04T11:50:59.048Z,772.00
2018-10-04T11:51:59.384Z,773.00
2018-10-04T11:52:59.695Z,772.00
2018-10-04T11:53:59.884Z,769.00
2018-10-04T11:55:00.335Z,768.00
2018-10-04T11:56:00.576Z,770.00
2018-10-04T11:57:00.827Z,770.00
2018-10-04T11:58:01.510Z,770.00
2018-10-04T11:59:01.870Z,769.00
2018-10-04T12:00:02.068Z,770.00
2018-10-04T12:01:02.394Z,766.00
2018-10-04T12:02:01.574Z,764.00
2018-10-04T12:03:03.001Z,762.00
2018-10-04T12:04:03.402Z,760.00
2018-10-04T12:05:03.551Z,761.00
2018-10-04T12:06:04.008Z,760.00
2018-10-04T12:07:04.254Z,759.00
2018-10-04T12:08:03.498Z,759.00
2018-10-04T12:09:04.728Z,759.00
2018-10-04T12:10:05.004Z,758.00
2018-10-04T12:11:05.435Z,758.00
2018-10-04T12:12:05.749Z,758.00
2018-10-04T12:13:06.038Z,760.00
2018-10-04T12:14:06.397Z,763.00
2018-10-04T12:15:06.939Z,762.00
2018-10-04T12:16:07.195Z,761.00
2018-10-04T12:16:15.617Z,760.00
2018-10-04T12:17:16.859Z,759.00
2018-10-04T12:18:17.063Z,758.00
2018-10-04T12:19:17.290Z,757.00
2018-10-04T12:20:17.474Z,756.00